createdAt,value
2017-11-05T00:02:07.043Z,10.93
2017-11-05T00:04:33.746Z,12.13
2017-11-05T00:07:00.089Z,11.03
2017-11-05T00:09:26.465Z,10.63
2017-11-05T00:11:52.974Z,12.00
2017-11-05T00:14:19.365Z,12.30
2017-11-05T00:16:46.875Z,12.33
2017-11-05T00:19:13.329Z,12.10
2017-11-05T00:21:40.434Z,13.33
2017-11-05T00:24:07.527Z,11.40
2017-11-05T00:26:34.629Z,12.67
2017-11-05T00:29:00.975Z,13.00
2017-11-05T00:31:27.404Z,10.30
2017-11-05T00:33:54.493Z,8.50
2017-11-05T00:36:20.659Z,7.40
2017-11-05T00:38:46.832Z,7.10
2017-11-05T00:41:13.742Z,7.50
2017-11-05T00:43:39.896Z,7.90
2017-11-05T00:46:06.271Z,8.70
2017-11-05T00:48:33.396Z,15.17
2017-11-05T00:50:59.586Z,10.50
2017-11-05T00:53:25.784Z,11.00
2017-11-05T00:55:51.961Z,12.53
2017-11-05T00:58:18.338Z,13.27
2017-11-05T01:00:46.228Z,13.03
2017-11-05T01:03:12.418Z,13.90
2017-11-05T01:05:38.593Z,15.03
2017-11-05T01:08:05.138Z,16.00
2017-11-05T01:10:31.526Z,18.87
2017-11-05T01:12:58.092Z,15.40
2017-11-05T01:15:24.474Z,16.63
2017-11-05T01:17:50.863Z,18.10
2017-11-05T01:20:18.361Z,20.83
2017-11-05T01:22:45.577Z,18.97
2017-11-05T01:25:11.946Z,18.40
2017-11-05T01:27:38.332Z,22.80
2017-11-05T01:30:04.700Z,27.47
2017-11-05T01:32:31.084Z,24.40
2017-11-05T01:34:57.457Z,22.30
2017-11-05T01:37:24.576Z,23.80
2017-11-05T01:39:50.977Z,23.73
2017-11-05T01:42:17.518Z,31.23
2017-11-05T01:44:43.896Z,27.00
2017-11-05T01:47:11.007Z,27.33
2017-11-05T01:49:37.360Z,28.60
2017-11-05T01:52:04.478Z,26.90
2017-11-05T01:54:30.633Z,30.63
2017-11-05T01:56:56.823Z,29.50
2017-11-05T01:59:23.001Z,28.10
2017-11-05T02:01:49.377Z,33.50
2017-11-05T02:04:15.752Z,35.03
2017-11-05T02:06:42.139Z,30.77
2017-11-05T02:09:08.500Z,32.67
2017-11-05T02:11:35.082Z,34.93
2017-11-05T02:14:01.268Z,30.13
2017-11-05T02:16:28.004Z,30.43
2017-11-05T02:18:54.480Z,30.57
2017-11-05T02:21:26.454Z,29.83
2017-11-05T02:23:56.690Z,21.33
2017-11-05T02:26:23.839Z,22.03
2017-11-05T02:28:50.037Z,25.37
2017-11-05T02:31:16.264Z,24.37
2017-11-05T02:33:42.684Z,28.17
2017-11-05T02:36:09.868Z,23.20
2017-11-05T02:38:36.262Z,25.07
2017-11-05T02:41:02.706Z,23.80
2017-11-05T02:43:29.157Z,16.97
2017-11-05T02:45:56.290Z,16.20
2017-11-05T02:48:23.079Z,14.27
2017-11-05T02:50:49.492Z,14.20
2017-11-05T02:53:15.919Z,15.50
2017-11-05T02:55:42.389Z,13.70
2017-11-05T02:58:08.800Z,14.30
2017-11-05T03:00:35.213Z,17.23
2017-11-05T03:03:02.332Z,15.50
2017-11-05T03:05:28.763Z,12.43
2017-11-05T03:07:55.161Z,16.43
2017-11-05T03:10:21.648Z,17.00
2017-11-05T03:12:48.042Z,19.23
2017-11-05T03:15:14.433Z,21.60
2017-11-05T03:17:40.868Z,15.30
2017-11-05T03:20:07.269Z,17.60
2017-11-05T03:22:33.706Z,13.67
2017-11-05T03:25:00.106Z,13.27
2017-11-05T03:27:26.504Z,19.13
2017-11-05T03:29:52.883Z,15.60
2017-11-05T03:32:19.279Z,15.90
2017-11-05T03:34:45.917Z,25.50
2017-11-05T03:37:12.442Z,20.50
2017-11-05T03:39:38.821Z,20.23
2017-11-05T03:42:05.227Z,17.50
2017-11-05T03:44:31.660Z,22.70
2017-11-05T03:46:59.145Z,27.47
2017-11-05T03:49:25.559Z,24.43
2017-11-05T03:51:51.932Z,23.50
2017-11-05T03:54:18.328Z,18.87
2017-11-05T03:56:44.716Z,22.40
2017-11-05T03:59:11.129Z,23.83
2017-11-05T04:01:37.500Z,24.33
2017-11-05T04:04:03.995Z,24.57
2017-11-05T04:06:30.407Z,30.40
2017-11-05T04:08:56.842Z,22.87
2017-11-05T04:11:23.254Z,28.07
2017-11-05T04:13:49.653Z,23.50
2017-11-05T04:16:16.070Z,28.33
2017-11-05T04:18:45.002Z,26.60
2017-11-05T04:21:11.396Z,26.93
2017-11-05T04:23:37.770Z,28.27
2017-11-05T04:26:04.906Z,25.43
2017-11-05T04:28:31.340Z,27.47
2017-11-05T04:30:57.743Z,25.57
2017-11-05T04:33:24.156Z,24.23
2017-11-05T04:35:50.558Z,34.50
2017-11-05T04:38:17.025Z,26.87
2017-11-05T04:40:43.461Z,36.03
2017-11-05T04:43:09.836Z,29.27
2017-11-05T04:48:32.687Z,29.90
2017-11-05T04:51:12.014Z,25.87
2017-11-05T04:53:40.164Z,29.87
2017-11-05T04:56:07.285Z,26.83
2017-11-05T04:58:33.796Z,29.63
2017-11-05T05:01:00.216Z,27.67
2017-11-05T05:03:27.336Z,30.83
2017-11-05T05:05:53.705Z,33.63
2017-11-05T05:08:20.073Z,31.60
2017-11-05T05:10:46.523Z,34.70
2017-11-05T05:13:12.909Z,39.73
2017-11-05T05:15:39.312Z,44.63
2017-11-05T05:18:05.697Z,37.10
2017-11-05T05:20:32.283Z,44.33
2017-11-05T05:22:58.638Z,48.07
2017-11-05T05:25:25.012Z,45.17
2017-11-05T05:27:51.394Z,44.40
2017-11-05T05:30:17.782Z,54.90
2017-11-05T05:32:44.204Z,43.77
2017-11-05T05:35:10.584Z,51.10
2017-11-05T05:37:37.084Z,58.83
2017-11-05T05:40:04.255Z,51.97
2017-11-05T05:42:30.687Z,47.17
2017-11-05T05:44:57.064Z,53.70
2017-11-05T05:47:23.521Z,49.27
2017-11-05T05:49:49.935Z,46.70
2017-11-05T05:52:17.047Z,50.87
2017-11-05T05:54:44.183Z,50.77
2017-11-05T05:57:10.591Z,55.13
2017-11-05T05:59:37.020Z,58.70
2017-11-05T06:02:03.441Z,50.40
2017-11-05T06:04:29.869Z,40.27
2017-11-05T06:06:56.361Z,35.57
2017-11-05T06:09:22.758Z,33.63
2017-11-05T06:11:49.157Z,28.83
2017-11-05T06:14:15.498Z,29.43
2017-11-05T06:16:41.872Z,32.20
2017-11-05T06:19:09.150Z,23.60
2017-11-05T06:21:35.533Z,19.27
2017-11-05T06:24:01.922Z,20.63
2017-11-05T06:26:28.748Z,23.53
2017-11-05T06:28:55.882Z,22.43
2017-11-05T06:31:22.260Z,18.90
2017-11-05T06:33:49.377Z,22.13
2017-11-05T06:36:15.555Z,21.80
2017-11-05T06:38:41.948Z,22.60
2017-11-05T06:41:08.357Z,18.30
2017-11-05T06:43:35.226Z,21.70
2017-11-05T06:46:01.648Z,18.70
2017-11-05T06:48:28.042Z,16.60
2017-11-05T06:50:54.717Z,12.37
2017-11-05T06:53:21.197Z,13.53
2017-11-05T06:55:47.828Z,9.00
2017-11-05T06:58:14.312Z,10.03
2017-11-05T07:00:41.873Z,9.73
2017-11-05T07:03:08.256Z,12.37
2017-11-05T07:05:34.827Z,11.43
2017-11-05T07:08:01.286Z,10.20
2017-11-05T07:10:27.664Z,7.27
2017-11-05T07:12:54.787Z,10.27
2017-11-05T07:15:21.223Z,8.10
2017-11-05T07:17:47.589Z,9.70
2017-11-05T07:20:13.975Z,9.07
2017-11-05T07:22:40.376Z,9.40
2017-11-05T07:25:06.795Z,12.07
2017-11-05T07:27:33.491Z,14.90
2017-11-05T07:30:00.604Z,12.40
2017-11-05T07:32:26.985Z,11.80
2017-11-05T07:34:53.381Z,12.23
2017-11-05T07:37:19.813Z,11.73
2017-11-05T07:39:46.186Z,8.47
2017-11-05T07:42:12.604Z,8.77
2017-11-05T07:44:39.056Z,10.53
2017-11-05T07:47:05.554Z,9.60
2017-11-05T07:49:31.968Z,7.80
2017-11-05T07:51:58.337Z,9.00
2017-11-05T07:54:24.821Z,6.80
2017-11-05T07:56:51.945Z,9.27
2017-11-05T07:59:18.364Z,6.33
2017-11-05T08:01:44.721Z,6.13
2017-11-05T08:04:11.121Z,9.60
2017-11-05T08:06:38.761Z,8.53
2017-11-05T08:09:05.612Z,7.70
2017-11-05T08:11:32.001Z,11.13
2017-11-05T08:13:59.134Z,9.87
2017-11-05T08:16:26.220Z,8.00
2017-11-05T08:18:52.672Z,5.40
2017-11-05T08:21:19.113Z,6.63
2017-11-05T08:23:45.536Z,6.37
2017-11-05T08:26:11.930Z,11.37
2017-11-05T08:28:39.065Z,7.00
2017-11-05T08:31:05.502Z,10.20
2017-11-05T08:33:32.561Z,9.40
2017-11-05T08:35:59.747Z,4.93
2017-11-05T08:38:26.316Z,6.80
2017-11-05T08:40:52.718Z,6.47
2017-11-05T08:43:18.912Z,6.13
2017-11-05T08:45:45.138Z,5.90
2017-11-05T08:48:11.313Z,7.70
2017-11-05T08:50:37.708Z,6.20
2017-11-05T08:53:04.225Z,7.40
2017-11-05T08:55:30.464Z,6.40
2017-11-05T08:57:56.848Z,7.97
2017-11-05T09:00:23.227Z,8.10
2017-11-05T09:02:49.615Z,5.97
2017-11-05T09:05:15.987Z,6.13
2017-11-05T09:07:43.376Z,7.47
2017-11-05T09:10:10.531Z,9.90
2017-11-05T09:12:36.925Z,8.10
2017-11-05T09:15:03.355Z,9.77
2017-11-05T09:17:30.531Z,7.65
2017-11-05T09:19:56.954Z,6.10
2017-11-05T09:22:23.378Z,7.85
2017-11-05T09:24:50.633Z,7.93
2017-11-05T09:27:17.048Z,7.93
2017-11-05T09:29:43.443Z,8.00
2017-11-05T09:32:10.588Z,6.40
2017-11-05T09:34:37.493Z,4.60
2017-11-05T09:37:03.647Z,5.67
2017-11-05T09:39:29.816Z,21.27
2017-11-05T09:41:55.979Z,10.73
2017-11-05T09:44:22.889Z,8.90
2017-11-05T09:46:49.034Z,5.20
2017-11-05T09:49:15.248Z,8.00
2017-11-05T09:51:41.454Z,8.47
2017-11-05T09:54:08.343Z,6.23
2017-11-05T09:56:34.524Z,8.83
2017-11-05T09:59:00.794Z,8.80
2017-11-05T10:01:27.906Z,9.37
2017-11-05T10:03:54.275Z,8.30
2017-11-05T10:06:20.853Z,6.60
2017-11-05T10:08:47.342Z,8.57
2017-11-05T10:11:13.878Z,6.43
2017-11-05T10:13:40.454Z,7.07
2017-11-05T10:16:06.909Z,7.87
2017-11-05T10:18:33.298Z,6.43
2017-11-05T10:20:59.755Z,7.93
2017-11-05T10:23:26.212Z,4.30
2017-11-05T10:25:52.577Z,5.07
2017-11-05T10:28:19.088Z,5.10
2017-11-05T10:30:45.442Z,7.40
2017-11-05T10:33:11.789Z,5.90
2017-11-05T10:35:38.185Z,8.30
2017-11-05T10:38:04.547Z,5.60
2017-11-05T10:40:31.193Z,6.67
2017-11-05T10:42:58.341Z,8.37
2017-11-05T10:45:24.693Z,11.90
2017-11-05T10:47:51.068Z,6.80
2017-11-05T10:50:17.507Z,8.40
2017-11-05T10:52:43.873Z,7.97
2017-11-05T10:55:10.886Z,5.93
2017-11-05T10:57:37.214Z,5.27
2017-11-05T11:00:03.678Z,5.60
2017-11-05T11:02:30.804Z,7.03
2017-11-05T11:04:57.074Z,7.57
2017-11-05T11:07:23.493Z,6.10
2017-11-05T11:09:49.792Z,5.93
2017-11-05T11:12:16.171Z,10.83
2017-11-05T11:14:42.606Z,6.20
2017-11-05T11:17:09.038Z,8.43
2017-11-05T11:19:35.417Z,7.20
2017-11-05T11:22:01.793Z,6.90
2017-11-05T11:24:28.976Z,6.30
2017-11-05T11:26:55.895Z,7.47
2017-11-05T11:29:22.160Z,7.30
2017-11-05T11:31:54.740Z,6.57
2017-11-05T11:34:20.901Z,8.53
2017-11-05T11:36:47.113Z,7.83
2017-11-05T11:39:13.342Z,8.17
2017-11-05T11:41:39.526Z,7.30
2017-11-05T11:44:05.715Z,10.80
2017-11-05T11:46:31.881Z,10.90
2017-11-05T11:48:58.049Z,12.23
2017-11-05T11:51:25.062Z,14.30
2017-11-05T11:53:51.428Z,14.37
2017-11-05T11:56:17.802Z,14.23
2017-11-05T11:58:44.186Z,13.40
2017-11-05T12:01:10.577Z,14.67
2017-11-05T12:03:36.936Z,13.13
2017-11-05T12:06:03.388Z,11.47
2017-11-05T12:08:29.769Z,11.23
2017-11-05T12:10:56.160Z,15.33
2017-11-05T12:13:22.544Z,16.80
2017-11-05T12:15:49.954Z,11.73
2017-11-05T12:18:16.107Z,13.50
2017-11-05T12:20:42.285Z,14.20
2017-11-05T12:23:09.370Z,20.57
2017-11-05T12:25:35.606Z,12.90
2017-11-05T12:28:02.065Z,10.40
2017-11-05T12:30:29.224Z,10.23
2017-11-05T12:32:55.566Z,11.60
2017-11-05T12:35:21.951Z,14.73
2017-11-05T12:37:49.113Z,13.03
2017-11-05T12:40:15.315Z,11.30
2017-11-05T12:42:41.473Z,14.53
2017-11-05T12:45:07.926Z,12.30
2017-11-05T12:47:34.301Z,13.90
2017-11-05T12:50:00.921Z,13.90
2017-11-05T12:52:27.285Z,18.90
2017-11-05T12:54:53.653Z,14.27
2017-11-05T12:57:20.059Z,18.10
2017-11-05T12:59:46.507Z,15.47
2017-11-05T13:02:12.850Z,13.07
2017-11-05T13:04:39.335Z,12.27
2017-11-05T13:07:05.787Z,19.13
2017-11-05T13:09:32.136Z,13.53
2017-11-05T13:11:59.249Z,11.97
2017-11-05T13:14:26.019Z,14.10
2017-11-05T13:16:52.393Z,14.70
2017-11-05T13:19:19.513Z,11.30
2017-11-05T13:21:45.654Z,10.70
2017-11-05T13:24:12.078Z,9.23
2017-11-05T13:26:38.535Z,10.40
2017-11-05T13:29:04.909Z,13.60
2017-11-05T13:31:31.277Z,11.83
2017-11-05T13:33:58.682Z,9.03
2017-11-05T13:36:25.130Z,12.57
2017-11-05T13:38:52.286Z,10.53
2017-11-05T13:41:48.229Z,9.33
2017-11-05T13:44:15.390Z,9.40
2017-11-05T13:46:41.750Z,11.50
2017-11-05T13:49:08.230Z,11.23
2017-11-05T13:51:34.582Z,13.63
2017-11-05T13:54:00.978Z,9.03
2017-11-05T13:56:34.016Z,8.30
2017-11-05T13:59:00.378Z,11.47
2017-11-05T14:01:26.829Z,7.47
2017-11-05T14:03:53.225Z,11.53
2017-11-05T14:06:20.445Z,10.17
2017-11-05T14:08:47.600Z,8.57
2017-11-05T14:11:20.022Z,11.27
2017-11-05T14:13:47.148Z,12.10
2017-11-05T14:16:13.573Z,9.17
2017-11-05T14:18:40.673Z,13.50
2017-11-05T14:21:06.837Z,14.63
2017-11-05T14:23:33.011Z,10.93
2017-11-05T14:26:03.866Z,11.93
2017-11-05T14:28:30.263Z,12.13
2017-11-05T14:30:56.670Z,9.10
2017-11-05T14:33:23.084Z,13.07
2017-11-05T14:35:50.290Z,11.43
2017-11-05T14:38:16.670Z,6.93
2017-11-05T14:43:15.069Z,8.00
2017-11-05T14:45:41.435Z,8.33
2017-11-05T14:48:07.858Z,12.10
2017-11-05T14:50:34.312Z,11.67
2017-11-05T14:53:00.689Z,9.97
2017-11-05T14:55:27.135Z,9.73
2017-11-05T14:57:58.816Z,9.63
2017-11-05T15:00:25.191Z,7.80
2017-11-05T15:02:52.370Z,8.93
2017-11-05T15:05:18.745Z,5.40
2017-11-05T15:07:45.138Z,7.80
2017-11-05T15:10:12.255Z,4.87
2017-11-05T15:12:38.630Z,4.80
2017-11-05T15:15:05.017Z,10.00
2017-11-05T15:17:35.168Z,8.20
2017-11-05T15:20:01.558Z,7.57
2017-11-05T15:22:27.954Z,5.43
2017-11-05T15:24:55.067Z,6.10
2017-11-05T15:27:21.434Z,7.67
2017-11-05T15:29:47.813Z,5.30
2017-11-05T15:32:14.215Z,6.37
2017-11-05T15:34:40.595Z,17.43
2017-11-05T15:37:08.866Z,14.60
2017-11-05T15:39:35.296Z,14.30
2017-11-05T15:42:01.887Z,7.93
2017-11-05T15:44:28.271Z,9.90
2017-11-05T15:46:54.701Z,7.30
2017-11-05T15:49:21.830Z,6.03
2017-11-05T15:51:48.222Z,6.70
2017-11-05T15:54:14.694Z,9.43
2017-11-05T15:56:45.101Z,13.10
2017-11-05T15:59:11.451Z,9.30
2017-11-05T16:01:37.853Z,15.23
2017-11-05T16:04:04.302Z,7.63
2017-11-05T16:06:30.667Z,9.00
2017-11-05T16:08:57.056Z,5.80
2017-11-05T16:11:24.215Z,8.10
2017-11-05T16:13:50.754Z,8.97
2017-11-05T16:16:20.584Z,7.85
2017-11-05T16:18:47.967Z,7.32
2017-11-05T16:21:15.063Z,6.67
2017-11-05T16:23:41.474Z,5.05
2017-11-05T16:26:07.882Z,11.70
2017-11-05T16:28:34.286Z,9.98
2017-11-05T16:31:07.051Z,7.72
2017-11-05T16:33:34.363Z,7.55
2017-11-05T16:36:00.891Z,8.73
2017-11-05T16:38:27.415Z,7.30
2017-11-05T16:40:53.905Z,7.68
2017-11-05T16:43:20.482Z,6.57
2017-11-05T16:45:47.122Z,8.83
2017-11-05T16:48:16.757Z,5.87
2017-11-05T16:50:43.153Z,5.70
2017-11-05T16:53:09.588Z,9.60
2017-11-05T16:55:36.250Z,6.23
2017-11-05T16:58:03.142Z,6.82
2017-11-05T17:00:30.285Z,6.85
2017-11-05T17:02:56.721Z,6.70
2017-11-05T17:05:23.361Z,8.00
2017-11-05T17:07:49.784Z,17.90
2017-11-05T17:10:16.167Z,11.77
2017-11-05T17:12:42.708Z,7.07
2017-11-05T17:15:09.214Z,7.50
2017-11-05T17:17:36.627Z,6.10
2017-11-05T17:20:03.022Z,7.13
2017-11-05T17:22:29.451Z,5.93
2017-11-05T17:24:55.948Z,5.23
2017-11-05T17:27:22.487Z,5.60
2017-11-05T17:29:48.969Z,9.32
2017-11-05T17:32:15.364Z,6.22
2017-11-05T17:34:41.885Z,6.60
2017-11-05T17:37:08.353Z,5.93
2017-11-05T17:39:34.840Z,8.10
2017-11-05T17:42:01.569Z,6.67
2017-11-05T17:44:27.937Z,7.53
2017-11-05T17:46:54.418Z,6.22
2017-11-05T17:49:21.557Z,10.80
2017-11-05T17:51:49.033Z,7.07
2017-11-05T17:54:16.209Z,8.18
2017-11-05T17:56:43.448Z,10.13
2017-11-05T17:59:10.419Z,11.75
2017-11-05T18:01:37.511Z,12.20
2017-11-05T18:04:03.841Z,8.75
2017-11-05T18:06:30.151Z,8.70
2017-11-05T18:08:57.277Z,9.07
2017-11-05T18:11:23.513Z,13.18
2017-11-05T18:13:49.771Z,12.37
2017-11-05T18:16:16.142Z,14.75
2017-11-05T18:18:42.532Z,14.52
2017-11-05T18:21:09.081Z,17.40
2017-11-05T18:23:35.734Z,11.90
2017-11-05T18:26:02.238Z,11.27
2017-11-05T18:28:28.826Z,11.68
2017-11-05T18:30:55.206Z,15.10
2017-11-05T18:33:23.080Z,10.55
2017-11-05T18:35:49.495Z,10.73
2017-11-05T18:38:16.772Z,11.25
2017-11-05T18:40:43.343Z,12.18
2017-11-05T18:43:10.020Z,12.13
2017-11-05T18:45:36.418Z,13.55
2017-11-05T18:48:02.792Z,12.70
2017-11-05T18:50:29.168Z,13.38
2017-11-05T18:52:55.568Z,14.90
2017-11-05T18:55:22.015Z,21.48
2017-11-05T18:57:48.421Z,16.25
2017-11-05T19:00:14.868Z,17.90
2017-11-05T19:02:41.230Z,19.95
2017-11-05T19:05:07.662Z,14.25
2017-11-05T19:07:34.077Z,15.15
2017-11-05T19:10:01.309Z,19.35
2017-11-05T19:12:27.687Z,15.38
2017-11-05T19:14:54.115Z,14.75
2017-11-05T19:17:20.496Z,16.65
2017-11-05T19:19:46.895Z,16.15
2017-11-05T19:22:13.271Z,17.12
2017-11-05T19:24:40.391Z,17.15
2017-11-05T19:27:06.896Z,14.75
2017-11-05T19:29:33.255Z,17.33
2017-11-05T19:31:59.606Z,15.65
2017-11-05T19:34:25.978Z,19.40
2017-11-05T19:36:52.401Z,16.23
2017-11-05T19:39:18.777Z,18.77
2017-11-05T19:41:45.167Z,19.87
2017-11-05T19:44:11.537Z,18.80
2017-11-05T19:46:37.888Z,16.50
2017-11-05T19:49:04.271Z,17.10
2017-11-05T19:51:30.660Z,14.82
2017-11-05T19:53:57.016Z,15.65
2017-11-05T19:56:23.530Z,18.75
2017-11-05T19:58:49.905Z,18.73
2017-11-05T20:01:16.349Z,24.30
2017-11-05T20:03:42.705Z,27.20
2017-11-05T20:06:09.067Z,26.50
2017-11-05T20:08:35.431Z,28.10
2017-11-05T20:11:01.805Z,26.15
2017-11-05T20:13:28.187Z,19.42
2017-11-05T20:15:54.560Z,20.60
2017-11-05T20:18:20.911Z,18.33
2017-11-05T20:20:47.264Z,18.40
2017-11-05T20:23:13.625Z,15.85
2017-11-05T20:25:40.009Z,15.30
2017-11-05T20:28:06.513Z,14.95
2017-11-05T20:30:32.881Z,14.63
2017-11-05T20:32:59.289Z,15.63
2017-11-05T20:35:25.637Z,15.65
2017-11-05T20:37:52.079Z,14.23
2017-11-05T20:40:18.519Z,12.57
2017-11-05T20:42:45.034Z,11.93
2017-11-05T20:45:12.137Z,14.30
2017-11-05T20:47:38.651Z,11.63
2017-11-05T20:50:05.211Z,13.65
2017-11-05T20:52:31.570Z,11.65
2017-11-05T20:54:57.946Z,14.32
2017-11-05T20:57:24.354Z,22.73
2017-11-05T20:59:50.739Z,22.67
2017-11-05T21:02:18.029Z,19.45
2017-11-05T21:04:45.119Z,12.10
2017-11-05T21:07:11.535Z,13.07
2017-11-05T21:09:38.677Z,13.00
2017-11-05T21:12:05.069Z,13.60
2017-11-05T21:14:31.402Z,14.43
2017-11-05T21:16:57.938Z,14.82
2017-11-05T21:19:24.371Z,16.85
2017-11-05T21:21:50.748Z,13.20
2017-11-05T21:24:17.121Z,14.23
2017-11-05T21:26:43.590Z,14.55
2017-11-05T21:29:10.700Z,15.55
2017-11-05T21:31:36.853Z,14.05
2017-11-05T21:34:03.037Z,17.02
2017-11-05T21:36:29.940Z,16.05
2017-11-05T21:38:56.365Z,17.08
2017-11-05T21:41:22.750Z,13.20
2017-11-05T21:43:49.139Z,14.95
2017-11-05T21:46:15.505Z,20.62
2017-11-05T21:48:42.692Z,14.75
2017-11-05T21:51:09.074Z,16.55
2017-11-05T21:53:35.444Z,16.35
2017-11-05T21:56:01.806Z,14.52
2017-11-05T21:58:28.251Z,16.23
2017-11-05T22:00:54.654Z,17.17
2017-11-05T22:03:21.035Z,17.58
2017-11-05T22:05:47.549Z,18.65
2017-11-05T22:08:13.947Z,16.55
2017-11-05T22:10:40.460Z,15.75
2017-11-05T22:13:06.806Z,16.20
2017-11-05T22:15:33.207Z,19.95
2017-11-05T22:17:59.621Z,18.02
2017-11-05T22:20:26.118Z,17.50
2017-11-05T22:22:52.514Z,18.08
2017-11-05T22:25:18.841Z,16.58
2017-11-05T22:27:45.197Z,18.37
2017-11-05T22:30:11.546Z,19.30
2017-11-05T22:32:37.931Z,19.23
2017-11-05T22:35:04.349Z,16.10
2017-11-05T22:37:30.702Z,17.35
2017-11-05T22:39:57.238Z,18.70
2017-11-05T22:42:23.770Z,20.05
2017-11-05T22:44:50.912Z,18.15
2017-11-05T22:47:17.266Z,30.17
2017-11-05T22:49:43.657Z,25.27
2017-11-05T22:52:10.754Z,20.77
2017-11-05T22:54:37.154Z,20.12
2017-11-05T22:57:04.316Z,25.92
2017-11-05T22:59:30.700Z,20.23
2017-11-05T23:01:57.073Z,24.45
2017-11-05T23:04:23.523Z,21.30
2017-11-05T23:06:49.944Z,22.90
2017-11-05T23:09:16.388Z,21.27
2017-11-05T23:11:42.789Z,24.48
2017-11-05T23:14:09.142Z,17.85
2017-11-05T23:16:35.294Z,26.80
2017-11-05T23:19:02.494Z,25.45
2017-11-05T23:21:28.845Z,23.12
2017-11-05T23:23:55.982Z,20.05
2017-11-05T23:26:22.234Z,21.73
2017-11-05T23:28:49.158Z,27.95
2017-11-05T23:31:15.322Z,26.25
2017-11-05T23:33:41.550Z,25.77
2017-11-05T23:36:07.725Z,23.12
2017-11-05T23:38:34.658Z,21.05
2017-11-05T23:41:00.843Z,30.27
2017-11-05T23:43:27.231Z,20.85
2017-11-05T23:45:53.411Z,19.77
2017-11-05T23:48:19.572Z,29.02
2017-11-05T23:50:46.684Z,22.17
2017-11-05T23:53:12.819Z,20.42
2017-11-05T23:55:39.095Z,19.62
2017-11-05T23:58:05.237Z,20.67
